createdAt,value
2022-10-24T00:00:35.647Z,6.93
2022-10-24T00:03:23.141Z,6.37
2022-10-24T00:06:12.164Z,8.13
2022-10-24T00:08:59.702Z,6.20
2022-10-24T00:11:47.229Z,7.30
2022-10-24T00:14:36.394Z,6.50
2022-10-24T00:17:23.860Z,7.23
2022-10-24T00:20:12.321Z,7.63
2022-10-24T00:22:59.762Z,7.17
2022-10-24T00:25:47.331Z,6.17
2022-10-24T00:28:37.869Z,8.10
2022-10-24T00:31:25.285Z,7.67
2022-10-24T00:34:13.272Z,7.70
2022-10-24T00:37:00.729Z,7.37
2022-10-24T00:39:48.185Z,7.10
2022-10-24T00:42:36.720Z,7.37
2022-10-24T00:45:41.212Z,7.40
2022-10-24T00:48:41.905Z,7.77
2022-10-24T00:51:34.060Z,8.37
2022-10-24T00:54:22.136Z,6.80
2022-10-24T00:57:30.183Z,8.47
2022-10-24T01:00:24.913Z,8.83
2022-10-24T01:03:13.300Z,6.70
2022-10-24T01:06:48.945Z,8.53
2022-10-24T01:10:21.775Z,8.37
2022-10-24T01:13:51.775Z,7.03
2022-10-24T01:16:54.855Z,8.13
2022-10-24T01:20:10.191Z,6.47
2022-10-24T01:23:29.552Z,8.43
2022-10-24T01:26:41.599Z,6.87
2022-10-24T01:30:02.137Z,6.27
2022-10-24T01:33:16.013Z,5.93
2022-10-24T01:36:26.441Z,7.67
2022-10-24T01:39:20.473Z,6.37
2022-10-24T01:42:12.095Z,6.70
2022-10-24T01:45:04.375Z,5.73
2022-10-24T01:47:56.596Z,5.43
2022-10-24T01:50:49.507Z,7.10
2022-10-24T01:53:38.436Z,6.60
2022-10-24T01:56:27.640Z,7.63
2022-10-24T01:59:30.354Z,6.03
2022-10-24T02:02:38.796Z,7.77
2022-10-24T02:05:38.075Z,6.87
2022-10-24T02:08:39.260Z,6.27
2022-10-24T02:11:26.906Z,7.70
2022-10-24T02:14:52.942Z,8.43
2022-10-24T02:17:40.466Z,7.80
2022-10-24T02:20:37.039Z,7.00
2022-10-24T02:23:54.920Z,6.77
2022-10-24T02:27:26.295Z,6.90
2022-10-24T02:30:22.246Z,5.80
2022-10-24T02:33:12.065Z,7.07
2022-10-24T02:36:01.832Z,6.37
2022-10-24T02:38:54.019Z,7.10
2022-10-24T02:41:44.971Z,7.50
2022-10-24T02:44:33.999Z,6.03
2022-10-24T02:47:24.530Z,8.07
2022-10-24T02:50:13.454Z,5.93
2022-10-24T02:53:01.351Z,6.80
2022-10-24T02:55:48.925Z,5.53
2022-10-24T02:58:36.574Z,5.63
2022-10-24T03:01:24.418Z,5.67
2022-10-24T03:04:12.419Z,6.90
2022-10-24T03:06:59.989Z,5.27
2022-10-24T03:09:47.514Z,6.50
2022-10-24T03:12:34.894Z,6.53
2022-10-24T03:15:22.745Z,7.33
2022-10-24T03:18:10.514Z,7.57
2022-10-24T03:20:57.986Z,5.47
2022-10-24T03:23:45.440Z,6.30
2022-10-24T03:26:32.934Z,6.73
2022-10-24T03:29:20.364Z,6.67
2022-10-24T03:32:08.225Z,6.80
2022-10-24T03:34:56.185Z,7.17
2022-10-24T03:37:44.109Z,7.03
2022-10-24T03:40:31.570Z,7.30
2022-10-24T03:43:20.005Z,6.40
2022-10-24T03:46:07.435Z,8.23
2022-10-24T03:48:54.875Z,5.60
2022-10-24T03:51:42.341Z,6.03
2022-10-24T03:54:29.805Z,6.50
2022-10-24T03:57:17.374Z,6.77
2022-10-24T04:00:07.170Z,7.37
2022-10-24T04:02:55.189Z,6.27
2022-10-24T04:05:42.597Z,7.07
2022-10-24T04:08:30.064Z,7.67
2022-10-24T04:11:17.539Z,6.63
2022-10-24T04:14:05.508Z,6.83
2022-10-24T04:16:53.045Z,7.30
2022-10-24T04:19:40.447Z,8.53
2022-10-24T04:22:27.955Z,6.60
2022-10-24T04:25:16.580Z,6.90
2022-10-24T04:28:04.794Z,6.93
2022-10-24T04:30:57.727Z,6.67
2022-10-24T04:33:45.276Z,6.73
2022-10-24T04:36:34.756Z,6.70
2022-10-24T04:39:22.306Z,6.30
2022-10-24T04:42:09.748Z,6.93
2022-10-24T04:44:57.205Z,7.43
2022-10-24T04:47:44.777Z,7.20
2022-10-24T04:50:32.755Z,7.10
2022-10-24T04:53:20.279Z,6.77
2022-10-24T04:56:08.071Z,7.23
2022-10-24T04:58:55.857Z,6.30
2022-10-24T05:01:43.406Z,7.67
2022-10-24T05:04:31.254Z,6.70
2022-10-24T05:07:20.750Z,7.93
2022-10-24T05:10:09.747Z,6.57
2022-10-24T05:12:57.543Z,6.23
2022-10-24T05:15:45.186Z,8.40
2022-10-24T05:18:33.424Z,6.73
2022-10-24T05:21:20.830Z,7.07
2022-10-24T05:24:08.574Z,6.93
2022-10-24T05:26:56.628Z,8.53
2022-10-24T05:29:44.120Z,8.93
2022-10-24T05:32:32.864Z,9.20
2022-10-24T05:35:22.411Z,7.93
2022-10-24T05:38:10.065Z,9.03
2022-10-24T05:40:57.604Z,8.47
2022-10-24T05:43:45.070Z,9.60
2022-10-24T05:46:32.806Z,9.40
2022-10-24T05:49:20.545Z,7.83
2022-10-24T05:52:07.993Z,8.47
2022-10-24T05:55:06.288Z,9.07
2022-10-24T05:57:54.991Z,8.33
2022-10-24T06:00:42.462Z,8.67
2022-10-24T06:03:29.946Z,9.50
2022-10-24T06:06:17.900Z,7.70
2022-10-24T06:09:05.400Z,9.80
2022-10-24T06:11:52.844Z,7.87
2022-10-24T06:14:40.950Z,9.37
2022-10-24T06:17:28.605Z,9.40
2022-10-24T06:20:16.125Z,10.00
2022-10-24T06:23:03.620Z,9.93
2022-10-24T06:25:51.110Z,10.57
2022-10-24T06:28:39.310Z,11.27
2022-10-24T06:31:26.825Z,8.50
2022-10-24T06:34:14.358Z,10.20
2022-10-24T06:37:01.952Z,11.80
2022-10-24T06:39:49.445Z,9.10
2022-10-24T06:42:37.316Z,11.97
2022-10-24T06:45:25.340Z,10.47
2022-10-24T06:48:12.970Z,9.37
2022-10-24T06:51:00.462Z,10.43
2022-10-24T06:53:47.902Z,10.77
2022-10-24T06:56:35.535Z,8.60
2022-10-24T06:59:22.990Z,9.60
2022-10-24T07:02:15.855Z,8.93
2022-10-24T07:05:03.875Z,7.80
2022-10-24T07:07:51.370Z,8.77
2022-10-24T07:10:38.878Z,10.03
2022-10-24T07:13:26.311Z,7.83
2022-10-24T07:16:13.877Z,8.63
2022-10-24T07:19:01.350Z,8.33
2022-10-24T07:21:48.746Z,10.60
2022-10-24T07:24:36.585Z,9.57
2022-10-24T07:27:24.706Z,7.23
2022-10-24T07:30:18.081Z,8.00
2022-10-24T07:33:06.655Z,8.37
2022-10-24T07:35:54.581Z,8.80
2022-10-24T07:38:42.009Z,9.77
2022-10-24T07:41:31.970Z,8.37
2022-10-24T07:44:19.366Z,7.13
2022-10-24T07:47:09.377Z,8.57
2022-10-24T07:49:57.306Z,8.30
2022-10-24T07:52:44.800Z,8.40
2022-10-24T07:55:32.389Z,7.67
2022-10-24T07:58:19.921Z,8.83
2022-10-24T08:01:12.110Z,8.77
2022-10-24T08:03:59.619Z,8.33
2022-10-24T08:06:47.085Z,8.13
2022-10-24T08:09:42.755Z,8.67
2022-10-24T08:12:30.265Z,8.83
2022-10-24T08:15:17.766Z,7.73
2022-10-24T08:18:05.315Z,8.20
2022-10-24T08:21:02.166Z,8.07
2022-10-24T08:23:53.585Z,9.57
2022-10-24T08:26:41.443Z,7.30
2022-10-24T08:29:28.970Z,10.60
2022-10-24T08:32:16.480Z,10.13
2022-10-24T08:35:05.788Z,10.10
2022-10-24T08:37:53.274Z,9.57
2022-10-24T08:40:40.986Z,8.93
2022-10-24T08:43:28.816Z,9.97
2022-10-24T08:46:38.121Z,8.57
2022-10-24T08:49:50.433Z,8.60
2022-10-24T08:52:50.008Z,8.57
2022-10-24T08:55:49.806Z,9.10
2022-10-24T08:58:45.036Z,9.33
2022-10-24T09:01:41.079Z,8.13
2022-10-24T09:04:40.466Z,8.20
2022-10-24T09:07:29.031Z,9.37
2022-10-24T09:10:26.280Z,8.98
2022-10-24T09:13:16.375Z,8.33
2022-10-24T09:16:05.606Z,9.10
2022-10-24T09:18:56.980Z,9.40
2022-10-24T09:21:46.878Z,9.33
2022-10-24T09:24:53.709Z,8.48
2022-10-24T09:27:42.551Z,8.77
2022-10-24T09:30:33.289Z,9.00
2022-10-24T09:33:33.786Z,8.60
2022-10-24T09:36:25.119Z,9.00
2022-10-24T09:39:34.820Z,7.05
2022-10-24T09:42:23.950Z,9.13
2022-10-24T09:45:21.024Z,7.57
2022-10-24T09:48:19.941Z,7.33
2022-10-24T09:51:08.670Z,7.83
2022-10-24T09:54:03.046Z,8.48
2022-10-24T09:57:12.468Z,8.48
2022-10-24T10:00:01.706Z,8.00
2022-10-24T10:03:22.512Z,7.32
2022-10-24T10:06:21.380Z,7.70
2022-10-24T10:09:15.600Z,8.02
2022-10-24T10:12:03.451Z,7.18
2022-10-24T10:14:52.411Z,7.60
2022-10-24T10:17:59.736Z,8.70
2022-10-24T10:20:59.330Z,7.03
2022-10-24T10:23:54.001Z,8.35
2022-10-24T10:26:46.149Z,7.25
2022-10-24T10:29:33.696Z,8.10
2022-10-24T10:32:33.637Z,7.82
2022-10-24T10:35:40.604Z,6.85
2022-10-24T10:38:58.983Z,7.05
2022-10-24T10:45:09.826Z,6.82
2022-10-24T10:48:43.884Z,8.07
2022-10-24T10:51:58.785Z,7.00
2022-10-24T10:55:07.746Z,6.72
2022-10-24T10:58:12.302Z,8.52
2022-10-24T11:01:28.219Z,6.78
2022-10-24T11:04:27.842Z,7.50
2022-10-24T11:07:30.243Z,6.40
2022-10-24T11:10:27.260Z,7.78
2022-10-24T11:13:27.070Z,7.15
2022-10-24T11:16:27.031Z,8.05
2022-10-24T11:19:43.419Z,8.43
2022-10-24T11:22:43.266Z,6.80
2022-10-24T11:26:18.526Z,6.80
2022-10-24T11:29:40.519Z,9.55
2022-10-24T11:32:49.330Z,12.10
2022-10-24T11:35:44.908Z,6.38
2022-10-24T11:38:40.380Z,6.97
2022-10-24T11:41:56.524Z,7.82
2022-10-24T11:44:56.399Z,6.13
2022-10-24T11:48:04.300Z,6.60
2022-10-24T11:51:15.855Z,6.97
2022-10-24T11:54:23.145Z,7.55
2022-10-24T11:57:22.004Z,7.15
2022-10-24T12:00:21.291Z,5.72
2022-10-24T12:03:46.120Z,7.57
2022-10-24T12:07:19.515Z,6.32
2022-10-24T12:10:34.470Z,7.28
2022-10-24T12:14:28.054Z,6.95
2022-10-24T12:17:39.540Z,7.75
2022-10-24T12:20:28.061Z,6.55
2022-10-24T12:23:27.609Z,6.95
2022-10-24T12:26:15.024Z,5.40
2022-10-24T12:29:07.585Z,6.15
2022-10-24T12:31:55.257Z,5.90
2022-10-24T12:34:49.320Z,6.82
2022-10-24T12:37:37.290Z,6.38
2022-10-24T12:40:52.321Z,6.00
2022-10-24T12:43:47.530Z,5.53
2022-10-24T12:46:53.355Z,5.75
2022-10-24T12:49:40.812Z,6.03
2022-10-24T12:52:31.098Z,6.22
2022-10-24T12:55:39.472Z,5.55
2022-10-24T12:58:36.070Z,5.72
2022-10-24T13:01:34.674Z,5.57
2022-10-24T13:05:06.835Z,4.93
2022-10-24T13:08:43.985Z,5.15
2022-10-24T13:11:58.240Z,5.53
2022-10-24T13:14:54.925Z,5.93
2022-10-24T13:18:33.891Z,6.15
2022-10-24T13:21:48.426Z,4.70
2022-10-24T13:24:40.760Z,4.13
2022-10-24T13:27:31.855Z,5.90
2022-10-24T13:30:27.441Z,5.28
2022-10-24T13:33:33.245Z,4.85
2022-10-24T13:36:28.202Z,5.47
2022-10-24T13:39:26.807Z,5.93
2022-10-24T13:42:37.632Z,6.05
2022-10-24T13:45:29.631Z,5.32
2022-10-24T13:48:23.345Z,5.80
2022-10-24T13:51:23.913Z,5.68
2022-10-24T13:54:27.480Z,6.65
2022-10-24T13:57:36.003Z,7.07
2022-10-24T14:00:32.920Z,7.40
2022-10-24T14:03:24.733Z,5.97
2022-10-24T14:06:13.361Z,6.25
2022-10-24T14:09:11.774Z,6.82
2022-10-24T14:11:59.384Z,6.88
2022-10-24T14:14:51.530Z,6.78
2022-10-24T14:17:38.960Z,6.55
2022-10-24T14:20:37.970Z,6.72
2022-10-24T14:23:35.721Z,6.43
2022-10-24T14:26:24.226Z,5.70
2022-10-24T14:29:31.298Z,6.97
2022-10-24T14:32:19.045Z,6.07
2022-10-24T14:35:07.138Z,5.72
2022-10-24T14:37:54.746Z,6.40
2022-10-24T14:40:44.712Z,6.10
2022-10-24T14:43:32.441Z,5.87
2022-10-24T14:46:38.646Z,5.33
2022-10-24T14:49:36.772Z,5.77
2022-10-24T14:52:45.841Z,4.72
2022-10-24T14:55:34.061Z,6.28
2022-10-24T14:58:25.970Z,6.90
2022-10-24T15:01:19.705Z,5.50
2022-10-24T15:04:07.583Z,6.63
2022-10-24T15:06:57.176Z,4.93
2022-10-24T15:10:19.397Z,5.03
2022-10-24T15:13:17.420Z,5.00
2022-10-24T15:16:05.212Z,5.27
2022-10-24T15:18:57.048Z,5.37
2022-10-24T15:21:46.457Z,5.32
2022-10-24T15:24:33.996Z,4.93
2022-10-24T15:27:47.058Z,5.70
2022-10-24T15:30:37.883Z,5.80
2022-10-24T15:33:25.363Z,5.72
2022-10-24T15:36:40.035Z,5.07
2022-10-24T15:39:27.561Z,5.00
2022-10-24T15:42:17.532Z,4.73
2022-10-24T15:45:14.688Z,5.33
2022-10-24T15:48:02.126Z,4.40
2022-10-24T15:50:49.657Z,4.35
2022-10-24T15:53:37.130Z,4.90
2022-10-24T15:56:24.810Z,4.20
2022-10-24T15:59:12.330Z,4.75
2022-10-24T16:02:03.180Z,4.87
2022-10-24T16:04:51.060Z,4.45
2022-10-24T16:07:38.493Z,4.10
2022-10-24T16:10:26.027Z,3.95
2022-10-24T16:13:15.100Z,3.80
2022-10-24T16:16:02.583Z,4.18
2022-10-24T16:18:50.049Z,4.00
2022-10-24T16:21:39.871Z,3.00
2022-10-24T16:24:28.842Z,4.32
2022-10-24T16:27:16.320Z,3.40
2022-10-24T16:30:04.606Z,3.30
2022-10-24T16:32:52.717Z,3.38
2022-10-24T16:35:41.640Z,3.42
2022-10-24T16:38:31.586Z,2.65
2022-10-24T16:41:24.201Z,2.57
2022-10-24T16:44:13.407Z,2.60
2022-10-24T16:47:00.820Z,2.33
2022-10-24T16:49:48.310Z,2.75
2022-10-24T16:52:35.696Z,2.13
2022-10-24T16:55:23.690Z,2.60
2022-10-24T16:58:11.196Z,2.00
2022-10-24T17:01:05.076Z,2.67
2022-10-24T17:03:52.624Z,2.00
2022-10-24T17:06:40.234Z,2.20
2022-10-24T17:09:27.940Z,2.17
2022-10-24T17:12:15.500Z,2.58
2022-10-24T17:15:03.568Z,2.15
2022-10-24T17:17:51.147Z,2.95
2022-10-24T17:20:45.185Z,2.40
2022-10-24T17:23:34.446Z,2.33
2022-10-24T17:26:22.166Z,2.25
2022-10-24T17:29:18.165Z,1.80
2022-10-24T17:32:06.900Z,2.80
2022-10-24T17:34:55.488Z,2.20
2022-10-24T17:38:37.345Z,2.70
2022-10-24T17:41:37.265Z,2.10
2022-10-24T17:44:25.082Z,2.80
2022-10-24T17:47:12.695Z,2.93
2022-10-24T17:50:00.120Z,2.43
2022-10-24T17:52:51.309Z,2.17
2022-10-24T17:55:47.793Z,2.17
2022-10-24T17:58:35.685Z,2.10
2022-10-24T18:01:23.289Z,2.30
2022-10-24T18:04:10.844Z,1.90
2022-10-24T18:06:58.326Z,1.73
2022-10-24T18:09:45.714Z,2.77
2022-10-24T18:12:39.930Z,1.70
2022-10-24T18:15:27.371Z,2.80
2022-10-24T18:18:14.920Z,2.80
2022-10-24T18:21:16.205Z,2.83
2022-10-24T18:24:07.949Z,2.13
2022-10-24T18:26:55.395Z,3.10
2022-10-24T18:29:42.867Z,2.03
2022-10-24T18:32:30.360Z,2.00
2022-10-24T18:35:17.952Z,2.40
2022-10-24T18:38:05.381Z,4.53
2022-10-24T18:40:53.464Z,2.30
2022-10-24T18:43:41.321Z,2.30
2022-10-24T18:46:30.581Z,2.47
2022-10-24T18:49:18.937Z,1.93
2022-10-24T18:52:43.315Z,1.90
2022-10-24T18:55:33.798Z,2.10
2022-10-24T18:58:21.370Z,2.23
2022-10-24T19:01:39.136Z,2.20
2022-10-24T19:04:27.019Z,2.50
2022-10-24T19:07:14.608Z,2.27
2022-10-24T19:10:02.228Z,2.17
2022-10-24T19:12:51.284Z,2.73
2022-10-24T19:15:53.773Z,2.10
2022-10-24T19:18:49.878Z,3.03
2022-10-24T19:21:37.450Z,2.80
2022-10-24T19:24:25.160Z,2.70
2022-10-24T19:27:12.580Z,2.40
2022-10-24T19:30:00.006Z,2.50
2022-10-24T19:32:48.161Z,2.90
2022-10-24T19:35:47.492Z,2.27
2022-10-24T19:38:35.203Z,2.13
2022-10-24T19:41:23.619Z,2.50
2022-10-24T19:44:11.215Z,1.87
2022-10-24T19:46:58.745Z,2.50
2022-10-24T19:49:46.195Z,2.00
2022-10-24T19:52:33.652Z,1.97
2022-10-24T19:55:22.845Z,1.87
2022-10-24T19:58:19.142Z,2.47
2022-10-24T20:01:17.972Z,1.73
2022-10-24T20:04:05.933Z,2.03
2022-10-24T20:06:53.305Z,2.00
2022-10-24T20:09:40.746Z,1.77
2022-10-24T20:12:28.188Z,2.00
2022-10-24T20:15:15.963Z,2.37
2022-10-24T20:18:03.413Z,1.97
2022-10-24T20:20:51.561Z,2.27
2022-10-24T20:23:41.300Z,2.30
2022-10-24T20:26:28.859Z,1.67
2022-10-24T20:29:16.352Z,2.07
2022-10-24T20:32:03.949Z,1.43
2022-10-24T20:34:51.590Z,1.80
2022-10-24T20:37:39.042Z,2.40
2022-10-24T20:40:27.401Z,2.50
2022-10-24T20:43:17.477Z,1.93
2022-10-24T20:46:06.800Z,1.47
2022-10-24T20:48:54.310Z,2.00
2022-10-24T20:51:43.761Z,1.70
2022-10-24T20:54:31.227Z,1.90
2022-10-24T20:57:18.664Z,1.90
2022-10-24T21:00:07.840Z,1.33
2022-10-24T21:02:55.250Z,2.10
2022-10-24T21:05:42.699Z,2.07
2022-10-24T21:08:30.505Z,1.90
2022-10-24T21:11:26.181Z,2.40
2022-10-24T21:14:15.458Z,2.27
2022-10-24T21:17:02.900Z,1.40
2022-10-24T21:19:50.401Z,1.43
2022-10-24T21:22:37.876Z,1.47
2022-10-24T21:25:25.336Z,2.13
2022-10-24T21:28:12.741Z,1.60
2022-10-24T21:31:11.720Z,1.63
2022-10-24T21:33:59.188Z,1.60
2022-10-24T21:36:47.665Z,1.67
2022-10-24T21:39:35.233Z,2.47
2022-10-24T21:45:10.640Z,1.90
2022-10-24T21:47:58.063Z,1.63
2022-10-24T21:53:41.610Z,2.60
2022-10-24T21:56:33.153Z,2.27
2022-10-24T21:59:22.337Z,1.83
2022-10-24T22:02:10.865Z,2.30
2022-10-24T22:04:58.631Z,2.00
2022-10-24T22:07:47.581Z,1.80
2022-10-24T22:10:37.087Z,1.63
2022-10-24T22:13:24.701Z,1.50
2022-10-24T22:16:14.369Z,1.60
2022-10-24T22:19:04.725Z,2.00
2022-10-24T22:21:52.301Z,1.80
2022-10-24T22:24:39.744Z,2.30
2022-10-24T22:27:27.241Z,2.17
2022-10-24T22:30:14.682Z,1.73
2022-10-24T22:33:02.591Z,1.67
2022-10-24T22:35:59.715Z,2.07
2022-10-24T22:38:47.581Z,1.87
2022-10-24T22:41:35.408Z,1.90
2022-10-24T22:44:23.570Z,1.80
2022-10-24T22:47:33.221Z,1.93
2022-10-24T22:50:26.682Z,2.80
2022-10-24T22:53:19.756Z,1.80
2022-10-24T22:56:27.425Z,2.20
2022-10-24T22:59:15.438Z,2.40
2022-10-24T23:02:31.711Z,2.33
2022-10-24T23:05:30.085Z,2.00
2022-10-24T23:08:38.432Z,2.10
2022-10-24T23:11:27.423Z,2.30
2022-10-24T23:17:04.430Z,1.80
2022-10-24T23:19:53.300Z,1.80
2022-10-24T23:22:44.689Z,1.57
2022-10-24T23:25:33.209Z,2.40
2022-10-24T23:29:10.581Z,2.97
2022-10-24T23:31:59.142Z,2.43
2022-10-24T23:34:48.002Z,2.20
2022-10-24T23:37:38.551Z,2.13
2022-10-24T23:40:37.198Z,2.53
2022-10-24T23:43:25.210Z,1.97
2022-10-24T23:46:43.520Z,1.70
2022-10-24T23:50:11.070Z,1.70
2022-10-24T23:53:38.580Z,1.50
2022-10-24T23:56:30.759Z,1.60
2022-10-24T23:59:18.148Z,1.97
